River Pirate — TCUS9 — position and weather

sailwx.info

Track history (hours):
 
Tides and Currents Weather Stations Pressure Air Temp Water Temp Dewpoint Dewpoint Depression Visibility Wind Speed Wind Dir Waves Ship Positions

River Pirate

Last reported at 2017-Sep-14 12:02 UTC. Time now 2017-Sep-23 02:26 UTC.
Position N 36°42' E 031°32'.
Warning: this ship's position is 8 days out of date.

Length 29 m.

Type: Passenger vessel. MMSI: 271043198.

Date/timePositionNaut miles runAvg speedWind from/ knotsBaromVisibWave heightAir tempDewpointWater temp
2017-Sep-14 12:02N 36°42' E 031°32'  
2017-Sep-11 13:34N 36°45' E 031°28'1 3.8
2017-Sep-11 13:24N 36°45' E 031°28'1 1.6
2017-Sep-11 12:58N 36°45' E 031°29'0 0.0
2017-Sep-11 12:28N 36°45' E 031°29'1 2.4
2017-Sep-11 11:58N 36°44' E 031°30'4 8.4
2017-Sep-11 11:30N 36°41' E 031°33'4 8.4
2017-Sep-11 11:00N 36°39' E 031°38'1 2.5
2017-Sep-11 10:27N 36°39' E 031°40'0 0.0
2017-Sep-11 10:00N 36°39' E 031°40'0 0.1
2017-Sep-11 09:26N 36°39' E 031°40'3 7.2
2017-Sep-11 09:00N 36°40' E 031°36'2 4.8
2017-Sep-11 08:29N 36°42' E 031°34'1 2.5
2017-Sep-11 08:01N 36°43' E 031°33'3 6.7
2017-Sep-11 07:31N 36°44' E 031°29'2 0.1
2017-Sep-10 13:46N 36°45' E 031°28'1 5.1
2017-Sep-10 13:30N 36°45' E 031°29'0 0.0
2017-Sep-10 12:59N 36°45' E 031°29'0 0.0
2017-Sep-10 12:30N 36°45' E 031°29'3 6.6
2017-Sep-10 12:00N 36°42' E 031°32'4 8.8
2017-Sep-10 11:30N 36°40' E 031°36'1 0.4
2017-Sep-10 09:29N 36°40' E 031°37'4 3.6
2017-Sep-10 08:27N 36°42' E 031°34'5 0.4
2017-Sep-09 18:41N 36°45' E 031°29'0 0.9
2017-Sep-09 18:30N 36°45' E 031°29'1 1.6
2017-Sep-09 17:56N 36°44' E 031°30'0 0.5
2017-Sep-09 17:30N 36°44' E 031°29'0 0.0
2017-Sep-09 17:00N 36°44' E 031°29'0 0.0
2017-Sep-09 16:30N 36°44' E 031°29'0 0.0
2017-Sep-09 16:00N 36°44' E 031°29'2 0.6
2017-Sep-09 12:43N 36°46' E 031°28'0 1.6
2017-Sep-09 12:29N 36°45' E 031°28'1 2.1
2017-Sep-09 11:58N 36°45' E 031°29'0 0.0
2017-Sep-09 11:25N 36°45' E 031°29'1 1.4
2017-Sep-09 11:00N 36°44' E 031°29'1 2.4
2017-Sep-09 10:25N 36°44' E 031°28'3 7.0
2017-Sep-09 09:59N 36°45' E 031°24'3 0.1
2017-Sep-08 13:38N 36°46' E 031°28'0 2.6
2017-Sep-08 13:31N 36°45' E 031°28'1 2.2
2017-Sep-08 13:00N 36°45' E 031°29'0 0.0
2017-Sep-08 12:30N 36°45' E 031°29'1 1.8
2017-Sep-08 11:56N 36°44' E 031°30'3 7.6
2017-Sep-08 11:30N 36°42' E 031°33'4 7.8
2017-Sep-08 11:00N 36°40' E 031°37'2 4.4
2017-Sep-08 10:28N 36°39' E 031°40'0 0.0
2017-Sep-08 09:58N 36°39' E 031°40'  
2017-Sep-05 12:25N 36°43' E 031°30'3 8.1
2017-Sep-05 12:00N 36°42' E 031°33'6 0.3
2017-Sep-04 13:37N 36°46' E 031°28'0 2.8
2017-Sep-04 13:30N 36°45' E 031°28'1 2.3
2017-Sep-04 13:00N 36°45' E 031°29'0 0.0
2017-Sep-04 12:30N 36°45' E 031°29'  
Track history (hours):
 
Tides and Currents Weather Stations Pressure Air Temp Water Temp Dewpoint Dewpoint Depression Visibility Wind Speed Wind Dir Waves Ship Positions

River Pirate

Last reported at 2017-Sep-14 12:02 UTC. Time now 2017-Sep-23 02:26 UTC.
Position N 36°42' E 031°32'.
Warning: this ship's position is 8 days out of date.

Length 29 m.

Type: Passenger vessel. MMSI: 271043198.

Date/timePositionNaut miles runAvg speedWind from/ knotsBaromVisibWave heightAir tempDewpointWater temp
2017-Sep-14 12:02N 36°42' E 031°32'  
2017-Sep-11 13:34N 36°45' E 031°28'1 3.8
2017-Sep-11 13:24N 36°45' E 031°28'1 1.6
2017-Sep-11 12:58N 36°45' E 031°29'0 0.0
2017-Sep-11 12:28N 36°45' E 031°29'1 2.4
2017-Sep-11 11:58N 36°44' E 031°30'4 8.4
2017-Sep-11 11:30N 36°41' E 031°33'4 8.4
2017-Sep-11 11:00N 36°39' E 031°38'1 2.5
2017-Sep-11 10:27N 36°39' E 031°40'0 0.0
2017-Sep-11 10:00N 36°39' E 031°40'0 0.1
2017-Sep-11 09:26N 36°39' E 031°40'3 7.2
2017-Sep-11 09:00N 36°40' E 031°36'2 4.8
2017-Sep-11 08:29N 36°42' E 031°34'1 2.5
2017-Sep-11 08:01N 36°43' E 031°33'3 6.7
2017-Sep-11 07:31N 36°44' E 031°29'2 0.1
2017-Sep-10 13:46N 36°45' E 031°28'1 5.1
2017-Sep-10 13:30N 36°45' E 031°29'0 0.0
2017-Sep-10 12:59N 36°45' E 031°29'0 0.0
2017-Sep-10 12:30N 36°45' E 031°29'3 6.6
2017-Sep-10 12:00N 36°42' E 031°32'4 8.8
2017-Sep-10 11:30N 36°40' E 031°36'1 0.4
2017-Sep-10 09:29N 36°40' E 031°37'4 3.6
2017-Sep-10 08:27N 36°42' E 031°34'5 0.4
2017-Sep-09 18:41N 36°45' E 031°29'0 0.9
2017-Sep-09 18:30N 36°45' E 031°29'1 1.6
2017-Sep-09 17:56N 36°44' E 031°30'0 0.5
2017-Sep-09 17:30N 36°44' E 031°29'0 0.0
2017-Sep-09 17:00N 36°44' E 031°29'0 0.0
2017-Sep-09 16:30N 36°44' E 031°29'0 0.0
2017-Sep-09 16:00N 36°44' E 031°29'2 0.6
2017-Sep-09 12:43N 36°46' E 031°28'0 1.6
2017-Sep-09 12:29N 36°45' E 031°28'1 2.1
2017-Sep-09 11:58N 36°45' E 031°29'0 0.0
2017-Sep-09 11:25N 36°45' E 031°29'1 1.4
2017-Sep-09 11:00N 36°44' E 031°29'1 2.4
2017-Sep-09 10:25N 36°44' E 031°28'3 7.0
2017-Sep-09 09:59N 36°45' E 031°24'3 0.1
2017-Sep-08 13:38N 36°46' E 031°28'0 2.6
2017-Sep-08 13:31N 36°45' E 031°28'1 2.2
2017-Sep-08 13:00N 36°45' E 031°29'0 0.0
2017-Sep-08 12:30N 36°45' E 031°29'1 1.8
2017-Sep-08 11:56N 36°44' E 031°30'3 7.6
2017-Sep-08 11:30N 36°42' E 031°33'4 7.8
2017-Sep-08 11:00N 36°40' E 031°37'2 4.4
2017-Sep-08 10:28N 36°39' E 031°40'0 0.0
2017-Sep-08 09:58N 36°39' E 031°40'  
2017-Sep-05 12:25N 36°43' E 031°30'3 8.1
2017-Sep-05 12:00N 36°42' E 031°33'6 0.3
2017-Sep-04 13:37N 36°46' E 031°28'0 2.8
2017-Sep-04 13:30N 36°45' E 031°28'1 2.3
2017-Sep-04 13:00N 36°45' E 031°29'0 0.0
2017-Sep-04 12:30N 36°45' E 031°29'  

Dump ship's entire track history